Teterboro Airport
KTEB : now visible

Airfield :











YOU CAN JOIN US ON...

 
LOGIN :

Register | Disclaimer

   EN    FR    IT 

 









Legend :    VFR   Marginal VFR   IFR   Intensive IFR   Very Intensive IFR
Visi :
Ceiling :
>= 8 km
>= 3000ft
5 to 8 km
1000 to 3000 ft
1500m to 5 km
500 to 1000 ft
800 to 1500m
200 to 500 ft
< 800m
< 200 ft
Symbols :   Thunderstorms  Fog  Heavy snow  Heavy precipitations  Wind > 20 kt







- Airport Elevation : 9 ft


KTEB - Teterboro

CURRENT METAR :
  • 202351Z 28008G21KT 10SM CLR 27/14 A2970 RMK AO2 SLP056 60000 T02720144 10311 20272 53005

EXPIRED METARs :
  • 202251Z 26010G16KT 10SM CLR 28/17 A2969 RMK AO2 RAB13E20 SLP053 P0000 T02830167
  • 202151Z 28011G19KT 10SM FEW060 BKN090 28/17 A2968 RMK AO2 SLP052 T02830167

TAF KTEB
Valid from the 21 at 00:00 until the 22 at 06:00 UTC


202323Z 2100/2206 27013G20KT P6SM SCT050 SCT100
FM210200 31012G19KT P6SM FEW035 SCT250
FM210600 31009KT P6SM FEW035 SCT250
FM211200 31013G19KT P6SM FEW250
FM211500 31015G23KT P6SM FEW250
FM220000 32012G19KT P6SM FEW250
FM220300 32010KT P6SM SKC
KZNY FIR / North America



MET'MAP, your aeronautical weather chart ! - Copyright ORBIFLY December 2007 - Disclaimer

ORBIFLY MET'MAP TEAM :

Programming & Development : Alexandra Zaïnal
Concept & Development : Baudouin d'Aumeries
Co-Development & Prog : Marc-Olivier Méhu
Technical & hardware support : Manuel Goepfert

Contact : metmap@orbifly.com




SOURCES & CREDITS :

   NOAA       Earth
Advisory